sensor_id;sensor_type;location;lat;lon;timestamp;P1;durP1;ratioP1;P2;durP2;ratioP2
6452;SDS011;3259;51.080;13.712;2022-12-24T00:02:40;1.13;;;1.02;;
6452;SDS011;3259;51.080;13.712;2022-12-24T00:05:29;0.90;;;0.88;;
6452;SDS011;3259;51.080;13.712;2022-12-24T00:08:18;1.13;;;0.95;;
6452;SDS011;3259;51.080;13.712;2022-12-24T00:11:08;2.25;;;0.95;;
6452;SDS011;3259;51.080;13.712;2022-12-24T00:13:57;1.10;;;1.00;;
6452;SDS011;3259;51.080;13.712;2022-12-24T00:16:46;1.00;;;0.60;;
6452;SDS011;3259;51.080;13.712;2022-12-24T00:19:34;1.48;;;0.70;;
6452;SDS011;3259;51.080;13.712;2022-12-24T00:22:23;1.10;;;0.77;;
6452;SDS011;3259;51.080;13.712;2022-12-24T00:25:11;0.70;;;0.70;;
6452;SDS011;3259;51.080;13.712;2022-12-24T00:28:02;1.00;;;0.93;;
6452;SDS011;3259;51.080;13.712;2022-12-24T00:30:50;0.88;;;0.75;;
6452;SDS011;3259;51.080;13.712;2022-12-24T00:33:39;0.73;;;0.63;;
6452;SDS011;3259;51.080;13.712;2022-12-24T00:36:28;0.70;;;0.70;;
6452;SDS011;3259;51.080;13.712;2022-12-24T00:39:16;0.70;;;0.65;;
6452;SDS011;3259;51.080;13.712;2022-12-24T00:42:05;0.50;;;0.50;;
6452;SDS011;3259;51.080;13.712;2022-12-24T00:44:56;0.70;;;0.70;;
6452;SDS011;3259;51.080;13.712;2022-12-24T00:47:44;1.55;;;0.57;;
6452;SDS011;3259;51.080;13.712;2022-12-24T00:50:33;0.95;;;0.65;;
6452;SDS011;3259;51.080;13.712;2022-12-24T00:53:23;0.38;;;0.38;;
6452;SDS011;3259;51.080;13.712;2022-12-24T00:56:11;1.67;;;0.60;;
6452;SDS011;3259;51.080;13.712;2022-12-24T00:59:00;0.32;;;0.32;;
6452;SDS011;3259;51.080;13.712;2022-12-24T01:01:50;0.47;;;0.47;;
6452;SDS011;3259;51.080;13.712;2022-12-24T01:04:39;0.95;;;0.45;;
6452;SDS011;3259;51.080;13.712;2022-12-24T01:07:46;0.80;;;0.50;;
6452;SDS011;3259;51.080;13.712;2022-12-24T01:10:35;0.52;;;0.52;;
6452;SDS011;3259;51.080;13.712;2022-12-24T01:13:23;0.75;;;0.50;;
6452;SDS011;3259;51.080;13.712;2022-12-24T01:16:13;0.50;;;0.50;;
6452;SDS011;3259;51.080;13.712;2022-12-24T01:19:05;0.30;;;0.30;;
6452;SDS011;3259;51.080;13.712;2022-12-24T01:21:54;1.08;;;0.95;;
6452;SDS011;3259;51.080;13.712;2022-12-24T01:24:43;0.40;;;0.40;;
6452;SDS011;3259;51.080;13.712;2022-12-24T01:27:32;0.93;;;0.50;;
6452;SDS011;3259;51.080;13.712;2022-12-24T01:30:20;0.60;;;0.60;;
6452;SDS011;3259;51.080;13.712;2022-12-24T01:33:09;0.55;;;0.50;;
6452;SDS011;3259;51.080;13.712;2022-12-24T01:36:02;1.00;;;0.50;;
6452;SDS011;3259;51.080;13.712;2022-12-24T01:38:51;0.55;;;0.55;;
6452;SDS011;3259;51.080;13.712;2022-12-24T01:41:39;3.72;;;0.50;;
6452;SDS011;3259;51.080;13.712;2022-12-24T01:44:47;0.60;;;0.60;;
6452;SDS011;3259;51.080;13.712;2022-12-24T01:47:36;0.30;;;0.30;;
6452;SDS011;3259;51.080;13.712;2022-12-24T01:50:24;0.40;;;0.30;;
6452;SDS011;3259;51.080;13.712;2022-12-24T01:53:15;1.15;;;0.43;;
6452;SDS011;3259;51.080;13.712;2022-12-24T01:56:04;0.50;;;0.50;;
6452;SDS011;3259;51.080;13.712;2022-12-24T01:58:54;0.57;;;0.20;;
6452;SDS011;3259;51.080;13.712;2022-12-24T02:01:45;0.57;;;0.50;;
6452;SDS011;3259;51.080;13.712;2022-12-24T02:04:36;0.50;;;0.30;;
6452;SDS011;3259;51.080;13.712;2022-12-24T02:07:25;0.55;;;0.32;;
6452;SDS011;3259;51.080;13.712;2022-12-24T02:10:15;0.30;;;0.30;;
6452;SDS011;3259;51.080;13.712;2022-12-24T02:13:04;0.20;;;0.20;;
6452;SDS011;3259;51.080;13.712;2022-12-24T02:15:58;0.47;;;0.35;;
6452;SDS011;3259;51.080;13.712;2022-12-24T02:18:55;1.02;;;0.30;;
6452;SDS011;3259;51.080;13.712;2022-12-24T02:21:49;1.77;;;0.17;;
6452;SDS011;3259;51.080;13.712;2022-12-24T02:28:10;0.30;;;0.30;;
6452;SDS011;3259;51.080;13.712;2022-12-24T02:31:07;0.30;;;0.30;;
6452;SDS011;3259;51.080;13.712;2022-12-24T02:33:58;0.50;;;0.30;;
6452;SDS011;3259;51.080;13.712;2022-12-24T02:36:53;0.35;;;0.35;;
6452;SDS011;3259;51.080;13.712;2022-12-24T02:39:44;0.20;;;0.20;;
6452;SDS011;3259;51.080;13.712;2022-12-24T02:42:35;0.22;;;0.22;;
6452;SDS011;3259;51.080;13.712;2022-12-24T02:45:26;0.20;;;0.20;;
6452;SDS011;3259;51.080;13.712;2022-12-24T02:48:18;0.32;;;0.32;;
6452;SDS011;3259;51.080;13.712;2022-12-24T02:51:08;1.85;;;0.20;;
6452;SDS011;3259;51.080;13.712;2022-12-24T02:53:58;0.25;;;0.25;;
6452;SDS011;3259;51.080;13.712;2022-12-24T02:56:53;1.23;;;0.35;;
6452;SDS011;3259;51.080;13.712;2022-12-24T02:59:58;0.30;;;0.30;;
6452;SDS011;3259;51.080;13.712;2022-12-24T03:02:59;0.20;;;0.10;;
6452;SDS011;3259;51.080;13.712;2022-12-24T03:05:58;0.20;;;0.20;;
6452;SDS011;3259;51.080;13.712;2022-12-24T03:08:49;0.20;;;0.20;;
6452;SDS011;3259;51.080;13.712;2022-12-24T03:11:43;0.10;;;0.10;;
6452;SDS011;3259;51.080;13.712;2022-12-24T03:14:35;0.30;;;0.30;;
6452;SDS011;3259;51.080;13.712;2022-12-24T03:17:25;1.13;;;0.30;;
6452;SDS011;3259;51.080;13.712;2022-12-24T03:20:16;0.25;;;0.20;;
6452;SDS011;3259;51.080;13.712;2022-12-24T03:23:07;0.28;;;0.28;;
6452;SDS011;3259;51.080;13.712;2022-12-24T03:25:58;0.30;;;0.30;;
6452;SDS011;3259;51.080;13.712;2022-12-24T03:28:48;0.30;;;0.30;;
6452;SDS011;3259;51.080;13.712;2022-12-24T03:31:40;2.75;;;0.40;;
6452;SDS011;3259;51.080;13.712;2022-12-24T03:34:30;0.20;;;0.20;;
6452;SDS011;3259;51.080;13.712;2022-12-24T03:37:19;0.47;;;0.30;;
6452;SDS011;3259;51.080;13.712;2022-12-24T03:40:10;0.30;;;0.20;;
6452;SDS011;3259;51.080;13.712;2022-12-24T03:42:59;1.90;;;0.10;;
6452;SDS011;3259;51.080;13.712;2022-12-24T03:45:48;0.10;;;0.10;;
6452;SDS011;3259;51.080;13.712;2022-12-24T03:48:36;0.45;;;0.20;;
6452;SDS011;3259;51.080;13.712;2022-12-24T03:51:25;0.30;;;0.30;;
6452;SDS011;3259;51.080;13.712;2022-12-24T03:54:15;0.10;;;0.10;;
6452;SDS011;3259;51.080;13.712;2022-12-24T03:57:05;0.20;;;0.15;;
6452;SDS011;3259;51.080;13.712;2022-12-24T03:59:53;0.10;;;0.10;;
6452;SDS011;3259;51.080;13.712;2022-12-24T04:02:42;0.35;;;0.20;;
6452;SDS011;3259;51.080;13.712;2022-12-24T04:05:31;0.32;;;0.13;;
6452;SDS011;3259;51.080;13.712;2022-12-24T04:08:20;0.10;;;0.10;;
6452;SDS011;3259;51.080;13.712;2022-12-24T04:11:10;0.10;;;0.10;;
6452;SDS011;3259;51.080;13.712;2022-12-24T04:14:00;0.25;;;0.22;;
6452;SDS011;3259;51.080;13.712;2022-12-24T04:16:49;0.10;;;0.10;;
6452;SDS011;3259;51.080;13.712;2022-12-24T04:19:38;2.13;;;0.20;;
6452;SDS011;3259;51.080;13.712;2022-12-24T04:22:26;0.10;;;0.10;;
6452;SDS011;3259;51.080;13.712;2022-12-24T04:25:15;0.10;;;0.10;;
6452;SDS011;3259;51.080;13.712;2022-12-24T04:28:04;1.45;;;0.10;;
6452;SDS011;3259;51.080;13.712;2022-12-24T04:30:57;0.68;;;0.20;;
6452;SDS011;3259;51.080;13.712;2022-12-24T04:33:46;0.20;;;0.20;;
6452;SDS011;3259;51.080;13.712;2022-12-24T04:36:34;1.13;;;0.20;;
6452;SDS011;3259;51.080;13.712;2022-12-24T04:39:23;0.20;;;0.20;;
6452;SDS011;3259;51.080;13.712;2022-12-24T04:42:12;0.10;;;0.10;;
6452;SDS011;3259;51.080;13.712;2022-12-24T04:45:00;0.20;;;0.10;;
6452;SDS011;3259;51.080;13.712;2022-12-24T04:47:50;0.68;;;0.20;;
6452;SDS011;3259;51.080;13.712;2022-12-24T04:50:39;0.05;;;0.05;;
6452;SDS011;3259;51.080;13.712;2022-12-24T04:53:28;0.10;;;0.10;;
6452;SDS011;3259;51.080;13.712;2022-12-24T04:56:18;0.30;;;0.30;;
6452;SDS011;3259;51.080;13.712;2022-12-24T04:59:07;0.50;;;0.10;;
6452;SDS011;3259;51.080;13.712;2022-12-24T05:01:56;0.00;;;0.00;;
6452;SDS011;3259;51.080;13.712;2022-12-24T05:04:46;0.10;;;0.10;;
6452;SDS011;3259;51.080;13.712;2022-12-24T05:07:35;0.20;;;0.10;;
6452;SDS011;3259;51.080;13.712;2022-12-24T05:10:24;0.10;;;0.10;;
6452;SDS011;3259;51.080;13.712;2022-12-24T05:13:12;0.10;;;0.10;;
6452;SDS011;3259;51.080;13.712;2022-12-24T05:16:01;0.10;;;0.00;;
6452;SDS011;3259;51.080;13.712;2022-12-24T05:18:50;0.10;;;0.10;;
6452;SDS011;3259;51.080;13.712;2022-12-24T05:21:40;2.55;;;0.10;;
6452;SDS011;3259;51.080;13.712;2022-12-24T05:24:29;0.00;;;0.00;;
6452;SDS011;3259;51.080;13.712;2022-12-24T05:27:35;0.10;;;0.10;;
6452;SDS011;3259;51.080;13.712;2022-12-24T05:30:24;0.10;;;0.10;;
6452;SDS011;3259;51.080;13.712;2022-12-24T05:33:12;0.35;;;0.22;;
6452;SDS011;3259;51.080;13.712;2022-12-24T05:36:01;0.00;;;0.00;;
6452;SDS011;3259;51.080;13.712;2022-12-24T05:38:51;0.10;;;0.10;;
6452;SDS011;3259;51.080;13.712;2022-12-24T05:41:40;0.10;;;0.10;;
6452;SDS011;3259;51.080;13.712;2022-12-24T05:44:29;0.17;;;0.00;;
6452;SDS011;3259;51.080;13.712;2022-12-24T05:47:18;0.10;;;0.10;;
6452;SDS011;3259;51.080;13.712;2022-12-24T05:50:07;0.10;;;0.08;;
6452;SDS011;3259;51.080;13.712;2022-12-24T05:52:56;0.85;;;0.10;;
6452;SDS011;3259;51.080;13.712;2022-12-24T05:55:47;5.30;;;0.30;;
6452;SDS011;3259;51.080;13.712;2022-12-24T05:58:35;0.17;;;0.17;;
6452;SDS011;3259;51.080;13.712;2022-12-24T06:01:24;2.00;;;0.20;;
6452;SDS011;3259;51.080;13.712;2022-12-24T06:04:13;0.20;;;0.00;;
6452;SDS011;3259;51.080;13.712;2022-12-24T06:07:07;1.00;;;0.40;;
6452;SDS011;3259;51.080;13.712;2022-12-24T06:09:55;0.80;;;0.00;;
6452;SDS011;3259;51.080;13.712;2022-12-24T06:12:46;0.10;;;0.10;;
6452;SDS011;3259;51.080;13.712;2022-12-24T06:15:34;0.10;;;0.10;;
6452;SDS011;3259;51.080;13.712;2022-12-24T06:18:23;0.20;;;0.20;;
6452;SDS011;3259;51.080;13.712;2022-12-24T06:21:12;0.13;;;0.13;;
6452;SDS011;3259;51.080;13.712;2022-12-24T06:24:01;0.20;;;0.10;;
6452;SDS011;3259;51.080;13.712;2022-12-24T06:26:49;0.00;;;0.00;;
6452;SDS011;3259;51.080;13.712;2022-12-24T06:29:39;0.10;;;0.10;;
6452;SDS011;3259;51.080;13.712;2022-12-24T06:32:28;2.72;;;0.10;;
6452;SDS011;3259;51.080;13.712;2022-12-24T06:35:16;0.00;;;0.00;;
6452;SDS011;3259;51.080;13.712;2022-12-24T06:38:06;0.00;;;0.00;;
6452;SDS011;3259;51.080;13.712;2022-12-24T06:40:55;1.75;;;0.17;;
6452;SDS011;3259;51.080;13.712;2022-12-24T06:43:44;0.50;;;0.00;;
6452;SDS011;3259;51.080;13.712;2022-12-24T06:46:34;0.88;;;0.10;;
6452;SDS011;3259;51.080;13.712;2022-12-24T06:49:23;0.10;;;0.10;;
6452;SDS011;3259;51.080;13.712;2022-12-24T06:52:13;0.22;;;0.20;;
6452;SDS011;3259;51.080;13.712;2022-12-24T06:55:01;0.10;;;0.10;;
6452;SDS011;3259;51.080;13.712;2022-12-24T06:57:50;0.00;;;0.00;;
6452;SDS011;3259;51.080;13.712;2022-12-24T07:00:39;0.00;;;0.00;;
6452;SDS011;3259;51.080;13.712;2022-12-24T07:03:29;0.10;;;0.10;;
6452;SDS011;3259;51.080;13.712;2022-12-24T07:06:19;0.03;;;0.00;;
6452;SDS011;3259;51.080;13.712;2022-12-24T07:09:11;0.03;;;0.03;;
6452;SDS011;3259;51.080;13.712;2022-12-24T07:12:01;0.45;;;0.10;;
6452;SDS011;3259;51.080;13.712;2022-12-24T07:14:51;0.20;;;0.10;;
6452;SDS011;3259;51.080;13.712;2022-12-24T07:17:40;0.10;;;0.10;;
6452;SDS011;3259;51.080;13.712;2022-12-24T07:20:30;0.43;;;0.10;;
6452;SDS011;3259;51.080;13.712;2022-12-24T07:23:19;0.10;;;0.10;;
6452;SDS011;3259;51.080;13.712;2022-12-24T07:26:09;0.65;;;0.10;;
6452;SDS011;3259;51.080;13.712;2022-12-24T07:28:58;0.08;;;0.00;;
6452;SDS011;3259;51.080;13.712;2022-12-24T07:31:46;1.25;;;0.10;;
6452;SDS011;3259;51.080;13.712;2022-12-24T07:34:35;0.25;;;0.10;;
6452;SDS011;3259;51.080;13.712;2022-12-24T07:37:26;0.10;;;0.10;;
6452;SDS011;3259;51.080;13.712;2022-12-24T07:40:15;0.22;;;0.10;;
6452;SDS011;3259;51.080;13.712;2022-12-24T07:43:06;0.43;;;0.05;;
6452;SDS011;3259;51.080;13.712;2022-12-24T07:45:55;0.10;;;0.10;;
6452;SDS011;3259;51.080;13.712;2022-12-24T07:48:44;2.40;;;0.30;;
6452;SDS011;3259;51.080;13.712;2022-12-24T07:51:33;2.25;;;0.28;;
6452;SDS011;3259;51.080;13.712;2022-12-24T07:54:23;0.77;;;0.40;;
6452;SDS011;3259;51.080;13.712;2022-12-24T07:57:12;4.75;;;0.50;;
6452;SDS011;3259;51.080;13.712;2022-12-24T08:00:03;5.82;;;1.27;;
6452;SDS011;3259;51.080;13.712;2022-12-24T08:02:53;5.47;;;1.02;;
6452;SDS011;3259;51.080;13.712;2022-12-24T08:05:41;5.05;;;1.05;;
6452;SDS011;3259;51.080;13.712;2022-12-24T08:08:30;3.28;;;0.80;;
6452;SDS011;3259;51.080;13.712;2022-12-24T08:11:20;5.57;;;1.25;;
6452;SDS011;3259;51.080;13.712;2022-12-24T08:14:09;2.40;;;0.65;;
6452;SDS011;3259;51.080;13.712;2022-12-24T08:16:57;1.88;;;1.02;;
6452;SDS011;3259;51.080;13.712;2022-12-24T08:19:46;2.90;;;0.80;;
6452;SDS011;3259;51.080;13.712;2022-12-24T08:22:35;3.53;;;0.82;;
6452;SDS011;3259;51.080;13.712;2022-12-24T08:25:24;2.47;;;1.10;;
6452;SDS011;3259;51.080;13.712;2022-12-24T08:28:15;0.57;;;0.47;;
6452;SDS011;3259;51.080;13.712;2022-12-24T08:31:04;1.45;;;0.50;;
6452;SDS011;3259;51.080;13.712;2022-12-24T08:33:54;2.60;;;0.80;;
6452;SDS011;3259;51.080;13.712;2022-12-24T08:36:42;4.32;;;0.55;;
6452;SDS011;3259;51.080;13.712;2022-12-24T08:39:31;0.73;;;0.25;;
6452;SDS011;3259;51.080;13.712;2022-12-24T08:42:20;2.22;;;0.80;;
6452;SDS011;3259;51.080;13.712;2022-12-24T08:45:10;1.60;;;0.57;;
6452;SDS011;3259;51.080;13.712;2022-12-24T08:47:59;3.80;;;1.17;;
6452;SDS011;3259;51.080;13.712;2022-12-24T08:50:48;3.22;;;0.70;;
6452;SDS011;3259;51.080;13.712;2022-12-24T08:53:36;2.30;;;0.75;;
6452;SDS011;3259;51.080;13.712;2022-12-24T08:56:25;3.40;;;0.80;;
6452;SDS011;3259;51.080;13.712;2022-12-24T08:59:14;2.33;;;0.68;;
6452;SDS011;3259;51.080;13.712;2022-12-24T09:02:04;3.97;;;0.70;;
6452;SDS011;3259;51.080;13.712;2022-12-24T09:04:53;3.50;;;0.80;;
6452;SDS011;3259;51.080;13.712;2022-12-24T09:07:42;3.33;;;0.90;;
6452;SDS011;3259;51.080;13.712;2022-12-24T09:10:31;3.30;;;0.98;;
6452;SDS011;3259;51.080;13.712;2022-12-24T09:13:19;3.65;;;0.80;;
6452;SDS011;3259;51.080;13.712;2022-12-24T09:16:08;1.88;;;0.70;;
6452;SDS011;3259;51.080;13.712;2022-12-24T09:19:00;6.55;;;1.05;;
6452;SDS011;3259;51.080;13.712;2022-12-24T09:21:49;5.75;;;1.13;;
6452;SDS011;3259;51.080;13.712;2022-12-24T09:24:38;2.90;;;0.95;;
6452;SDS011;3259;51.080;13.712;2022-12-24T09:27:28;2.85;;;0.93;;
6452;SDS011;3259;51.080;13.712;2022-12-24T09:30:17;14.48;;;5.95;;
6452;SDS011;3259;51.080;13.712;2022-12-24T09:33:06;101.90;;;34.25;;
6452;SDS011;3259;51.080;13.712;2022-12-24T09:35:56;103.90;;;36.85;;
6452;SDS011;3259;51.080;13.712;2022-12-24T09:38:45;76.20;;;28.27;;
6452;SDS011;3259;51.080;13.712;2022-12-24T09:41:38;52.55;;;20.45;;
6452;SDS011;3259;51.080;13.712;2022-12-24T09:44:35;32.65;;;13.00;;
6452;SDS011;3259;51.080;13.712;2022-12-24T09:47:27;24.25;;;7.80;;
6452;SDS011;3259;51.080;13.712;2022-12-24T09:50:25;15.25;;;5.57;;
6452;SDS011;3259;51.080;13.712;2022-12-24T09:53:20;9.70;;;4.43;;
6452;SDS011;3259;51.080;13.712;2022-12-24T09:56:13;12.73;;;3.60;;
6452;SDS011;3259;51.080;13.712;2022-12-24T09:59:05;9.45;;;3.53;;
6452;SDS011;3259;51.080;13.712;2022-12-24T10:01:55;9.35;;;2.40;;
6452;SDS011;3259;51.080;13.712;2022-12-24T10:04:44;7.40;;;1.60;;
6452;SDS011;3259;51.080;13.712;2022-12-24T10:07:35;5.75;;;1.92;;
6452;SDS011;3259;51.080;13.712;2022-12-24T10:10:33;3.67;;;1.10;;
6452;SDS011;3259;51.080;13.712;2022-12-24T10:13:28;5.70;;;1.63;;
6452;SDS011;3259;51.080;13.712;2022-12-24T10:16:27;2.65;;;1.35;;
6452;SDS011;3259;51.080;13.712;2022-12-24T10:19:20;11.07;;;2.00;;
6452;SDS011;3259;51.080;13.712;2022-12-24T10:22:13;5.13;;;1.75;;
6452;SDS011;3259;51.080;13.712;2022-12-24T10:25:13;4.55;;;1.45;;
6452;SDS011;3259;51.080;13.712;2022-12-24T10:28:16;3.22;;;1.52;;
6452;SDS011;3259;51.080;13.712;2022-12-24T10:31:06;4.47;;;1.58;;
6452;SDS011;3259;51.080;13.712;2022-12-24T10:33:56;6.80;;;1.95;;
6452;SDS011;3259;51.080;13.712;2022-12-24T10:36:47;4.20;;;1.33;;
6452;SDS011;3259;51.080;13.712;2022-12-24T10:39:36;43.85;;;4.43;;
6452;SDS011;3259;51.080;13.712;2022-12-24T10:42:26;74.88;;;6.32;;
6452;SDS011;3259;51.080;13.712;2022-12-24T10:45:22;44.00;;;4.00;;
6452;SDS011;3259;51.080;13.712;2022-12-24T10:48:17;17.05;;;1.95;;
6452;SDS011;3259;51.080;13.712;2022-12-24T10:51:10;8.63;;;1.63;;
6452;SDS011;3259;51.080;13.712;2022-12-24T10:54:05;13.07;;;1.55;;
6452;SDS011;3259;51.080;13.712;2022-12-24T10:56:56;15.25;;;2.67;;
6452;SDS011;3259;51.080;13.712;2022-12-24T10:59:48;9.48;;;2.20;;
6452;SDS011;3259;51.080;13.712;2022-12-24T11:02:40;16.38;;;2.00;;
6452;SDS011;3259;51.080;13.712;2022-12-24T11:05:29;16.20;;;1.85;;
6452;SDS011;3259;51.080;13.712;2022-12-24T11:08:19;15.98;;;1.58;;
6452;SDS011;3259;51.080;13.712;2022-12-24T11:11:09;11.30;;;1.42;;
6452;SDS011;3259;51.080;13.712;2022-12-24T11:13:59;10.77;;;2.35;;
6452;SDS011;3259;51.080;13.712;2022-12-24T11:16:48;5.90;;;1.25;;
6452;SDS011;3259;51.080;13.712;2022-12-24T11:19:40;4.22;;;1.45;;
6452;SDS011;3259;51.080;13.712;2022-12-24T11:22:34;3.35;;;1.02;;
6452;SDS011;3259;51.080;13.712;2022-12-24T11:25:24;3.08;;;0.95;;
6452;SDS011;3259;51.080;13.712;2022-12-24T11:28:18;4.97;;;1.20;;
6452;SDS011;3259;51.080;13.712;2022-12-24T11:31:16;3.38;;;1.05;;
6452;SDS011;3259;51.080;13.712;2022-12-24T11:34:17;3.03;;;0.98;;
6452;SDS011;3259;51.080;13.712;2022-12-24T11:37:14;2.08;;;0.60;;
6452;SDS011;3259;51.080;13.712;2022-12-24T11:40:04;2.97;;;1.00;;
6452;SDS011;3259;51.080;13.712;2022-12-24T11:42:57;6.28;;;1.33;;
6452;SDS011;3259;51.080;13.712;2022-12-24T11:45:47;5.28;;;1.00;;
6452;SDS011;3259;51.080;13.712;2022-12-24T11:48:37;4.07;;;0.93;;
6452;SDS011;3259;51.080;13.712;2022-12-24T11:51:26;3.28;;;0.70;;
6452;SDS011;3259;51.080;13.712;2022-12-24T11:54:18;4.53;;;0.82;;
6452;SDS011;3259;51.080;13.712;2022-12-24T11:57:10;3.80;;;0.85;;
6452;SDS011;3259;51.080;13.712;2022-12-24T12:00:11;17.73;;;1.00;;
6452;SDS011;3259;51.080;13.712;2022-12-24T12:03:00;3.13;;;0.63;;
6452;SDS011;3259;51.080;13.712;2022-12-24T12:05:49;5.93;;;1.20;;
6452;SDS011;3259;51.080;13.712;2022-12-24T12:08:39;3.25;;;0.60;;
6452;SDS011;3259;51.080;13.712;2022-12-24T12:11:29;7.75;;;1.50;;
6452;SDS011;3259;51.080;13.712;2022-12-24T12:14:20;7.25;;;1.42;;
6452;SDS011;3259;51.080;13.712;2022-12-24T12:17:12;10.43;;;1.98;;
6452;SDS011;3259;51.080;13.712;2022-12-24T12:20:09;7.60;;;0.90;;
6452;SDS011;3259;51.080;13.712;2022-12-24T12:23:01;3.50;;;0.98;;
6452;SDS011;3259;51.080;13.712;2022-12-24T12:25:52;6.78;;;0.77;;
6452;SDS011;3259;51.080;13.712;2022-12-24T12:28:45;10.82;;;1.20;;
6452;SDS011;3259;51.080;13.712;2022-12-24T12:31:35;3.03;;;0.70;;
6452;SDS011;3259;51.080;13.712;2022-12-24T12:34:28;4.28;;;0.50;;
6452;SDS011;3259;51.080;13.712;2022-12-24T12:37:20;2.25;;;0.68;;
6452;SDS011;3259;51.080;13.712;2022-12-24T12:40:12;3.83;;;1.30;;
6452;SDS011;3259;51.080;13.712;2022-12-24T12:43:04;4.35;;;1.20;;
6452;SDS011;3259;51.080;13.712;2022-12-24T12:46:02;2.97;;;1.02;;
6452;SDS011;3259;51.080;13.712;2022-12-24T12:48:59;2.78;;;0.80;;
6452;SDS011;3259;51.080;13.712;2022-12-24T12:51:56;1.63;;;0.70;;
6452;SDS011;3259;51.080;13.712;2022-12-24T12:54:56;4.47;;;0.63;;
6452;SDS011;3259;51.080;13.712;2022-12-24T12:57:52;4.40;;;0.70;;
6452;SDS011;3259;51.080;13.712;2022-12-24T13:00:43;5.07;;;1.15;;
6452;SDS011;3259;51.080;13.712;2022-12-24T13:03:57;1.67;;;0.70;;
6452;SDS011;3259;51.080;13.712;2022-12-24T13:07:38;2.55;;;0.60;;
6452;SDS011;3259;51.080;13.712;2022-12-24T13:10:54;3.40;;;0.80;;
6452;SDS011;3259;51.080;13.712;2022-12-24T13:13:54;7.07;;;0.98;;
6452;SDS011;3259;51.080;13.712;2022-12-24T13:20:24;6.22;;;2.20;;
6452;SDS011;3259;51.080;13.712;2022-12-24T13:23:16;9.05;;;1.30;;
6452;SDS011;3259;51.080;13.712;2022-12-24T13:26:09;9.73;;;1.10;;
6452;SDS011;3259;51.080;13.712;2022-12-24T13:32:36;5.70;;;0.85;;
6452;SDS011;3259;51.080;13.712;2022-12-24T13:35:37;2.20;;;0.95;;
6452;SDS011;3259;51.080;13.712;2022-12-24T13:44:44;2.15;;;0.93;;
6452;SDS011;3259;51.080;13.712;2022-12-24T13:47:33;6.53;;;1.02;;
6452;SDS011;3259;51.080;13.712;2022-12-24T13:50:22;9.23;;;2.67;;
6452;SDS011;3259;51.080;13.712;2022-12-24T13:53:21;19.23;;;11.27;;
6452;SDS011;3259;51.080;13.712;2022-12-24T13:56:19;16.65;;;7.55;;
6452;SDS011;3259;51.080;13.712;2022-12-24T13:59:11;11.57;;;8.77;;
6452;SDS011;3259;51.080;13.712;2022-12-24T14:02:14;10.25;;;5.30;;
6452;SDS011;3259;51.080;13.712;2022-12-24T14:05:06;13.20;;;4.75;;
6452;SDS011;3259;51.080;13.712;2022-12-24T14:08:08;13.85;;;5.35;;
6452;SDS011;3259;51.080;13.712;2022-12-24T14:11:04;9.98;;;3.75;;
6452;SDS011;3259;51.080;13.712;2022-12-24T14:17:20;7.57;;;3.38;;
6452;SDS011;3259;51.080;13.712;2022-12-24T14:20:09;7.15;;;2.80;;
6452;SDS011;3259;51.080;13.712;2022-12-24T14:22:58;3.70;;;2.65;;
6452;SDS011;3259;51.080;13.712;2022-12-24T14:25:47;3.78;;;2.55;;
6452;SDS011;3259;51.080;13.712;2022-12-24T14:28:39;3.50;;;2.20;;
6452;SDS011;3259;51.080;13.712;2022-12-24T14:31:30;3.95;;;2.22;;
6452;SDS011;3259;51.080;13.712;2022-12-24T14:34:19;5.22;;;2.53;;
6452;SDS011;3259;51.080;13.712;2022-12-24T14:37:08;3.88;;;1.95;;
6452;SDS011;3259;51.080;13.712;2022-12-24T14:39:58;5.70;;;2.10;;
6452;SDS011;3259;51.080;13.712;2022-12-24T14:42:50;3.58;;;1.70;;
6452;SDS011;3259;51.080;13.712;2022-12-24T14:45:45;3.22;;;2.10;;
6452;SDS011;3259;51.080;13.712;2022-12-24T14:48:47;2.45;;;1.65;;
6452;SDS011;3259;51.080;13.712;2022-12-24T14:51:41;3.22;;;1.60;;
6452;SDS011;3259;51.080;13.712;2022-12-24T14:54:35;1.55;;;1.42;;
6452;SDS011;3259;51.080;13.712;2022-12-24T14:57:25;2.65;;;1.05;;
6452;SDS011;3259;51.080;13.712;2022-12-24T15:00:17;5.50;;;1.33;;
6452;SDS011;3259;51.080;13.712;2022-12-24T15:03:10;76.72;;;12.15;;
6452;SDS011;3259;51.080;13.712;2022-12-24T15:06:01;53.45;;;9.90;;
6452;SDS011;3259;51.080;13.712;2022-12-24T15:08:52;50.03;;;10.55;;
6452;SDS011;3259;51.080;13.712;2022-12-24T15:11:42;30.92;;;8.38;;
6452;SDS011;3259;51.080;13.712;2022-12-24T15:14:38;20.17;;;7.78;;
6452;SDS011;3259;51.080;13.712;2022-12-24T15:17:29;22.33;;;6.80;;
6452;SDS011;3259;51.080;13.712;2022-12-24T15:20:20;25.80;;;6.80;;
6452;SDS011;3259;51.080;13.712;2022-12-24T15:23:16;16.65;;;4.95;;
6452;SDS011;3259;51.080;13.712;2022-12-24T15:26:15;14.40;;;4.82;;
6452;SDS011;3259;51.080;13.712;2022-12-24T15:29:18;14.52;;;5.10;;
6452;SDS011;3259;51.080;13.712;2022-12-24T15:32:09;8.88;;;3.67;;
6452;SDS011;3259;51.080;13.712;2022-12-24T15:35:00;12.23;;;4.30;;
6452;SDS011;3259;51.080;13.712;2022-12-24T15:37:50;11.18;;;3.65;;
6452;SDS011;3259;51.080;13.712;2022-12-24T15:40:39;7.68;;;3.60;;
6452;SDS011;3259;51.080;13.712;2022-12-24T15:43:28;11.75;;;3.15;;
6452;SDS011;3259;51.080;13.712;2022-12-24T15:46:18;11.02;;;3.25;;
6452;SDS011;3259;51.080;13.712;2022-12-24T15:49:12;5.55;;;2.83;;
6452;SDS011;3259;51.080;13.712;2022-12-24T15:52:03;11.63;;;2.88;;
6452;SDS011;3259;51.080;13.712;2022-12-24T15:54:54;6.80;;;2.67;;
6452;SDS011;3259;51.080;13.712;2022-12-24T15:57:44;3.75;;;2.58;;
6452;SDS011;3259;51.080;13.712;2022-12-24T16:00:32;7.32;;;2.47;;
6452;SDS011;3259;51.080;13.712;2022-12-24T16:03:21;12.63;;;2.63;;
6452;SDS011;3259;51.080;13.712;2022-12-24T16:06:10;6.63;;;2.42;;
6452;SDS011;3259;51.080;13.712;2022-12-24T16:09:02;8.10;;;2.72;;
6452;SDS011;3259;51.080;13.712;2022-12-24T16:12:36;6.45;;;2.42;;
6452;SDS011;3259;51.080;13.712;2022-12-24T16:15:24;6.30;;;2.65;;
6452;SDS011;3259;51.080;13.712;2022-12-24T16:18:14;3.67;;;2.03;;
6452;SDS011;3259;51.080;13.712;2022-12-24T16:21:05;2.13;;;1.85;;
6452;SDS011;3259;51.080;13.712;2022-12-24T16:23:54;6.78;;;2.50;;
6452;SDS011;3259;51.080;13.712;2022-12-24T16:26:44;5.05;;;2.15;;
6452;SDS011;3259;51.080;13.712;2022-12-24T16:29:34;5.47;;;2.38;;
6452;SDS011;3259;51.080;13.712;2022-12-24T16:32:26;3.95;;;2.00;;
6452;SDS011;3259;51.080;13.712;2022-12-24T16:35:20;4.20;;;2.65;;
6452;SDS011;3259;51.080;13.712;2022-12-24T16:38:12;3.63;;;1.52;;
6452;SDS011;3259;51.080;13.712;2022-12-24T16:41:02;3.80;;;2.00;;
6452;SDS011;3259;51.080;13.712;2022-12-24T16:43:51;3.38;;;1.67;;
6452;SDS011;3259;51.080;13.712;2022-12-24T16:46:40;2.42;;;1.52;;
6452;SDS011;3259;51.080;13.712;2022-12-24T16:49:28;7.50;;;2.92;;
6452;SDS011;3259;51.080;13.712;2022-12-24T16:52:18;4.72;;;1.58;;
6452;SDS011;3259;51.080;13.712;2022-12-24T16:55:11;2.42;;;1.40;;
6452;SDS011;3259;51.080;13.712;2022-12-24T16:58:00;2.85;;;1.58;;
6452;SDS011;3259;51.080;13.712;2022-12-24T17:00:51;2.25;;;1.60;;
6452;SDS011;3259;51.080;13.712;2022-12-24T17:03:41;4.05;;;1.83;;
6452;SDS011;3259;51.080;13.712;2022-12-24T17:06:29;3.15;;;1.60;;
6452;SDS011;3259;51.080;13.712;2022-12-24T17:09:18;2.95;;;1.67;;
6452;SDS011;3259;51.080;13.712;2022-12-24T17:12:08;1.65;;;1.55;;
6452;SDS011;3259;51.080;13.712;2022-12-24T17:14:56;3.67;;;1.52;;
6452;SDS011;3259;51.080;13.712;2022-12-24T17:17:45;2.05;;;1.80;;
6452;SDS011;3259;51.080;13.712;2022-12-24T17:20:35;1.98;;;1.73;;
6452;SDS011;3259;51.080;13.712;2022-12-24T17:23:24;2.63;;;1.20;;
6452;SDS011;3259;51.080;13.712;2022-12-24T17:26:13;6.00;;;1.85;;
6452;SDS011;3259;51.080;13.712;2022-12-24T17:29:02;2.78;;;1.80;;
6452;SDS011;3259;51.080;13.712;2022-12-24T17:31:51;6.97;;;2.85;;
6452;SDS011;3259;51.080;13.712;2022-12-24T17:34:39;12.38;;;2.95;;
6452;SDS011;3259;51.080;13.712;2022-12-24T17:37:29;12.95;;;4.82;;
6452;SDS011;3259;51.080;13.712;2022-12-24T17:40:18;9.45;;;3.95;;
6452;SDS011;3259;51.080;13.712;2022-12-24T17:43:07;9.30;;;3.50;;
6452;SDS011;3259;51.080;13.712;2022-12-24T17:45:56;10.70;;;3.85;;
6452;SDS011;3259;51.080;13.712;2022-12-24T17:48:45;8.07;;;3.67;;